• Join FlightAware (Why Join?)
  • Login
  • US Flag 
11:39PM EST


 

Airport Tracker/Info


-or-


 

Live Flight TrackerFlight Track Log ✈ SWA1395 ✈ 20-Jul-2013 ✈ KLAX - KRNO

Flight Track Log - Related Links

Times and Time Zones

All times are in EDT time to prevent confusion due to time zone crossing. See the SWA1395 flight status page for this flight to view local times or setup timezone preferences in your user account.

Time Position Orientation Groundspeed Altitude Reporting Facility
EDT Latitude Longitude Course Direction KTS MPH feet Rate Location/Type
12:40AM 33.9386 -118.5503 264° West 231 266 4,800  Level Los Angeles Center
12:41AM 33.9272 -118.6672 263° West 286 329 9,500 3,403 Climbing Los Angeles Center
12:42AM 33.9161 -118.7808 263° West 344 396 12,400 2,951 Climbing Los Angeles Center
12:43AM 33.9236 -118.8875 275° West 366 421 15,500 3,197 Climbing Los Angeles Center
12:44AM 33.9969 -118.9761 315° West 374 430 18,900 3,148 Climbing Los Angeles Center
12:45AM 34.0761 -119.0694 316° Northwest 396 456 21,900 2,852 Climbing Los Angeles Center
12:46AM 34.1581 -119.1644 316° Northwest 406 467 24,700 2,780 Climbing Los Angeles Center
12:47AM 34.2683 -119.2742 321° Northwest 427 491 27,600 2,488 Climbing Los Angeles Center
12:48AM 34.3731 -119.3542 328° Northwest 443 510 29,800 2,016 Climbing Los Angeles Center
12:49AM 34.4800 -119.4369 327° Northwest 454 522 31,700 1,967 Climbing Los Angeles Center
12:50AM 34.5908 -119.5192 329° Northwest 465 535 33,800 1,918 Climbing Los Angeles Center
12:51AM 34.6981 -119.5958 330° Northwest 463 533 35,600 1,770 Climbing Los Angeles Center
12:52AM 34.8111 -119.6767 330° Northwest 468 539 37,400 1,770 Climbing Los Angeles Center
12:53AM 34.9325 -119.7294 340° North 469 540 39,200 1,279 Climbing Los Angeles Center
12:54AM 35.0592 -119.7267 North 456 525 40,000 358 Climbing Los Angeles Center
12:56AM 35.1875 -119.7250 North 461 531 40,000  Level Los Angeles Center
12:57AM 35.3628 -119.7222 North 455 524 40,000 -49 Level Los Angeles Center
12:58AM 35.4889 -119.7217 360° North 455 524 39,900 -49 Descending Los Angeles Center
12:59AM 35.6128 -119.7197 North 450 518 39,900  Level Los Angeles Center
01:00AM 35.7383 -119.7194 360° North 452 520 39,900  Level Los Angeles Center
01:01AM 35.8625 -119.7178 North 449 517 39,900  Level Los Angeles Center
01:02AM 35.9878 -119.7150 North 451 519 39,900  Level Los Angeles Center
01:03AM 36.1144 -119.7136 North 454 522 39,900  Level Los Angeles Center
01:04AM 36.2406 -119.7128 360° North 455 524 39,900  Level Los Angeles Center
01:05AM 36.3675 -119.7114 North 456 525 39,900  Level Los Angeles Center
01:06AM 36.5431 -119.7044 North 455 524 39,900  Level Oakland Center
01:07AM 36.6706 -119.7025 North 458 527 39,900  Level Oakland Center
01:08AM 36.7986 -119.7014 360° North 462 532 39,900 -50 Level Oakland Center
01:09AM 36.9242 -119.6986 North 455 524 39,800 -545 Descending Oakland Center
01:10AM 37.0519 -119.6958 North 460 529 38,800 -942 Descending Oakland Center
01:11AM 37.1783 -119.6947 360° North 457 526 37,900 -942 Descending Oakland Center
01:12AM 37.3078 -119.6922 North 464 534 36,900 -1,328 Descending Oakland Center
01:13AM 37.4361 -119.6897 North 467 537 35,200 -2,479 Descending Oakland Center
01:14AM 37.5658 -119.6878 North 467 537 31,900 -2,579 Descending Oakland Center
01:15AM 37.6958 -119.6933 358° North 468 539 30,000 -1,041 Descending Oakland Center
01:16AM 37.8533 -119.7042 357° North 472 543 29,800 -645 Descending Oakland Center
01:17AM 37.9794 -119.7125 357° North 461 531 28,700 -1,041 Descending Oakland Center
01:18AM 38.1022 -119.7211 357° North 450 518 27,700 -992 Descending Oakland Center
01:19AM 38.2208 -119.7286 357° North 434 499 26,700 -984 Descending Oakland Center
01:20AM 38.3403 -119.7369 357° North 430 495 25,700 -992 Descending Oakland Center
01:21AM 38.4439 -119.7444 357° North 416 479 24,700 -1,240 Descending Oakland Center
01:22AM 38.5569 -119.7531 357° North 409 471 23,200 -2,331 Descending Oakland Center
01:23AM 38.6669 -119.7592 358° North 397 457 20,000 -3,025 Descending Oakland Center
01:24AM 38.7794 -119.7678 357° North 401 461 17,100 -2,727 Descending Oakland Center
01:25AM 38.8878 -119.7708 359° North 393 452 14,500 -1,884 Descending Oakland Center
01:26AM 38.9892 -119.7708 360° North 375 432 13,300 -885 Descending Oakland Center
01:27AM 39.0736 -119.7711 360° North 331 381 12,700 -595 Descending Oakland Center
01:28AM 39.1461 -119.7700 North 283 326 12,100 -1,041 Descending Oakland Center
01:29AM 39.2308 -119.7694 360° North 259 298 10,600 -1,636 Descending Oakland Center
01:30AM 39.2986 -119.7689 360° North 253 291 8,800 -1,091 Descending Oakland Center
01:31AM 39.3622 -119.7700 359° North 251 289 8,400 -1,294 Descending Oakland Center
01:32AM 39.3833 -119.7667 North 156 180 6,600 -1,604 Descending Northern Cal TRACON
01:33AM 39.4167 -119.7667 360° North 135 155 5,700 -800 Descending Northern Cal TRACON
01:34AM 39.4667 -119.7667 360° North 140 161 5,000 -700 Descending Northern Cal TRACON
01:36AM 39.4833 -119.7667 North  Level FlightAware Approximate
01:43AM 39.4991 -119.7681 North  Level Estimated